createdAt,value
2018-04-02T00:02:04.291Z,43.60
2018-04-02T00:04:31.912Z,47.37
2018-04-02T00:06:59.490Z,46.47
2018-04-02T00:09:27.074Z,47.63
2018-04-02T00:11:54.751Z,48.00
2018-04-02T00:14:22.382Z,46.17
2018-04-02T00:16:49.994Z,43.70
2018-04-02T00:19:18.337Z,49.43
2018-04-02T00:21:45.918Z,47.50
2018-04-02T00:24:13.522Z,46.10
2018-04-02T00:26:41.165Z,52.50
2018-04-02T00:29:09.531Z,50.30
2018-04-02T00:31:37.137Z,45.70
2018-04-02T00:34:04.753Z,45.10
2018-04-02T00:36:32.399Z,42.20
2018-04-02T00:39:00.010Z,41.87
2018-04-02T00:41:27.677Z,47.63
2018-04-02T00:43:55.269Z,46.53
2018-04-02T00:46:22.888Z,42.73
2018-04-02T00:48:50.524Z,48.00
2018-04-02T00:51:18.893Z,42.03
2018-04-02T00:53:46.487Z,47.97
2018-04-02T00:56:14.097Z,44.93
2018-04-02T00:58:41.672Z,35.07
2018-04-02T01:01:09.379Z,30.33
2018-04-02T01:03:36.960Z,38.07
2018-04-02T01:06:04.646Z,45.30
2018-04-02T01:08:32.223Z,46.63
2018-04-02T01:10:59.802Z,42.23
2018-04-02T01:13:27.412Z,36.83
2018-04-02T01:15:55.089Z,40.20
2018-04-02T01:18:22.697Z,43.50
2018-04-02T01:20:50.378Z,46.37
2018-04-02T01:23:17.991Z,43.53
2018-04-02T01:25:45.594Z,41.77
2018-04-02T01:28:13.994Z,41.27
2018-04-02T01:30:41.571Z,35.17
2018-04-02T01:33:09.177Z,43.17
2018-04-02T01:35:36.837Z,33.07
2018-04-02T01:38:04.431Z,47.40
2018-04-02T01:40:32.056Z,34.10
2018-04-02T01:42:59.695Z,34.20
2018-04-02T01:45:27.363Z,38.93
2018-04-02T01:47:54.955Z,41.47
2018-04-02T01:50:22.594Z,43.33
2018-04-02T01:52:50.228Z,40.83
2018-04-02T01:55:17.819Z,39.27
2018-04-02T01:57:45.417Z,40.07
2018-04-02T02:00:13.031Z,38.00
2018-04-02T02:02:40.732Z,31.00
2018-04-02T02:05:08.358Z,32.53
2018-04-02T02:07:36.066Z,31.73
2018-04-02T02:10:04.418Z,36.10
2018-04-02T02:12:32.025Z,32.97
2018-04-02T02:14:59.669Z,33.00
2018-04-02T02:17:28.032Z,34.13
2018-04-02T02:19:56.445Z,32.37
2018-04-02T02:22:24.125Z,31.83
2018-04-02T02:24:51.748Z,41.37
2018-04-02T02:27:19.341Z,32.97
2018-04-02T02:29:46.977Z,34.80
2018-04-02T02:32:14.594Z,35.93
2018-04-02T02:34:42.168Z,36.43
2018-04-02T02:37:09.785Z,34.97
2018-04-02T02:39:37.392Z,33.00
2018-04-02T02:42:05.054Z,41.67
2018-04-02T02:44:32.715Z,35.00
2018-04-02T02:47:00.341Z,29.17
2018-04-02T02:49:27.959Z,33.13
2018-04-02T02:51:56.350Z,31.70
2018-04-02T02:54:23.941Z,40.10
2018-04-02T02:56:51.566Z,36.47
2018-04-02T02:59:19.915Z,38.63
2018-04-02T03:01:47.529Z,33.60
2018-04-02T03:04:15.130Z,37.87
2018-04-02T03:06:42.762Z,34.97
2018-04-02T03:09:10.404Z,34.30
2018-04-02T03:11:38.015Z,36.77
2018-04-02T03:14:05.653Z,35.50
2018-04-02T03:16:33.285Z,37.13
2018-04-02T03:19:00.865Z,31.60
2018-04-02T03:21:28.470Z,34.27
2018-04-02T03:23:56.074Z,31.93
2018-04-02T03:26:23.662Z,33.23
2018-04-02T03:28:51.307Z,43.60
2018-04-02T03:31:18.928Z,49.37
2018-04-02T03:33:46.547Z,43.67
2018-04-02T03:36:14.161Z,46.10
2018-04-02T03:38:41.801Z,43.47
2018-04-02T03:41:09.385Z,37.93
2018-04-02T03:43:37.005Z,37.60
2018-04-02T03:46:04.613Z,37.23
2018-04-02T03:48:32.221Z,34.77
2018-04-02T03:50:59.911Z,34.07
2018-04-02T03:53:27.580Z,33.33
2018-04-02T03:55:55.159Z,32.80
2018-04-02T03:58:22.749Z,39.53
2018-04-02T04:00:51.156Z,33.70
2018-04-02T04:03:18.751Z,34.73
2018-04-02T04:05:46.375Z,44.90
2018-04-02T04:08:14.009Z,39.43
2018-04-02T04:10:41.625Z,34.40
2018-04-02T04:13:09.281Z,36.80
2018-04-02T04:15:36.901Z,32.73
2018-04-02T04:18:04.543Z,35.70
2018-04-02T04:20:32.188Z,32.13
2018-04-02T04:22:59.814Z,34.73
2018-04-02T04:25:27.402Z,34.70
2018-04-02T04:27:55.004Z,34.07
2018-04-02T04:30:23.390Z,35.20
2018-04-02T04:32:51.788Z,39.63
2018-04-02T04:35:19.426Z,36.23
2018-04-02T04:37:47.055Z,36.50
2018-04-02T04:40:14.724Z,47.40
2018-04-02T04:42:42.286Z,45.33
2018-04-02T04:45:09.942Z,38.40
2018-04-02T04:47:37.531Z,37.33
2018-04-02T04:50:05.211Z,39.97
2018-04-02T04:52:33.664Z,40.43
2018-04-02T04:55:01.322Z,36.67
2018-04-02T04:57:28.922Z,37.57
2018-04-02T04:59:56.541Z,34.53
2018-04-02T05:02:24.193Z,34.13
2018-04-02T05:04:51.784Z,37.43
2018-04-02T05:07:20.166Z,43.03
2018-04-02T05:09:48.556Z,40.83
2018-04-02T05:12:16.930Z,34.30
2018-04-02T05:14:45.348Z,34.83
2018-04-02T05:17:12.938Z,31.90
2018-04-02T05:19:41.313Z,35.03
2018-04-02T05:22:09.278Z,32.80
2018-04-02T05:24:36.926Z,30.13
2018-04-02T05:27:04.566Z,33.90
2018-04-02T05:29:32.116Z,34.37
2018-04-02T05:31:59.730Z,35.07
2018-04-02T05:34:27.327Z,33.33
2018-04-02T05:36:55.734Z,38.60
2018-04-02T05:39:23.322Z,32.73
2018-04-02T05:41:50.971Z,36.20
2018-04-02T05:44:18.581Z,31.80
2018-04-02T05:46:46.161Z,33.60
2018-04-02T05:49:13.762Z,30.23
2018-04-02T05:51:41.369Z,30.83
2018-04-02T05:54:08.963Z,39.00
2018-04-02T05:59:10.337Z,34.23
2018-04-02T06:01:37.949Z,29.93
2018-04-02T06:04:05.590Z,31.37
2018-04-02T06:06:33.177Z,32.80
2018-04-02T06:09:00.842Z,37.37
2018-04-02T06:11:28.461Z,39.63
2018-04-02T06:13:56.068Z,42.13
2018-04-02T06:16:23.678Z,36.50
2018-04-02T06:18:51.245Z,37.40
2018-04-02T06:21:18.883Z,39.23
2018-04-02T06:23:46.513Z,39.43
2018-04-02T06:26:14.118Z,35.93
2018-04-02T06:28:41.777Z,37.63
2018-04-02T06:31:09.357Z,40.83
2018-04-02T06:33:36.973Z,40.10
2018-04-02T06:36:04.563Z,38.67
2018-04-02T06:38:32.181Z,38.83
2018-04-02T06:40:59.772Z,38.87
2018-04-02T06:43:27.388Z,35.23
2018-04-02T06:45:54.973Z,36.00
2018-04-02T06:48:22.558Z,37.13
2018-04-02T06:50:50.150Z,41.93
2018-04-02T06:53:17.736Z,40.83
2018-04-02T06:55:45.328Z,42.30
2018-04-02T06:58:12.941Z,33.53
2018-04-02T07:00:40.557Z,37.43
2018-04-02T07:03:08.146Z,38.40
2018-04-02T07:05:35.751Z,40.50
2018-04-02T07:08:03.393Z,38.43
2018-04-02T07:10:31.036Z,35.83
2018-04-02T07:12:58.670Z,39.23
2018-04-02T07:15:27.054Z,42.97
2018-04-02T07:17:56.328Z,41.63
2018-04-02T07:20:24.680Z,41.47
2018-04-02T07:22:52.303Z,45.57
2018-04-02T07:25:19.919Z,42.80
2018-04-02T07:27:47.558Z,47.03
2018-04-02T07:30:15.157Z,46.90
2018-04-02T07:32:43.594Z,45.03
2018-04-02T07:35:11.191Z,54.53
2018-04-02T07:37:38.784Z,58.90
2018-04-02T07:40:07.151Z,55.43
2018-04-02T07:42:35.525Z,61.50
2018-04-02T07:45:03.132Z,59.67
2018-04-02T07:47:30.769Z,59.90
2018-04-02T07:49:59.393Z,64.23
2018-04-02T07:52:26.985Z,68.17
2018-04-02T07:54:54.617Z,61.63
2018-04-02T07:57:22.230Z,66.20
2018-04-02T07:59:49.848Z,74.27
2018-04-02T08:02:17.469Z,70.83
2018-04-02T08:04:45.832Z,71.07
2018-04-02T08:07:13.490Z,70.93
2018-04-02T08:09:41.850Z,79.77
2018-04-02T08:12:09.443Z,75.07
2018-04-02T08:14:37.071Z,80.63
2018-04-02T08:17:04.899Z,78.63
2018-04-02T08:19:32.522Z,84.27
2018-04-02T08:22:00.146Z,81.97
2018-04-02T08:24:27.759Z,82.40
2018-04-02T08:26:55.381Z,83.97
2018-04-02T08:29:23.028Z,80.60
2018-04-02T08:31:50.608Z,83.67
2018-04-02T08:34:18.210Z,82.90
2018-04-02T08:36:45.862Z,83.67
2018-04-02T08:39:13.453Z,73.03
2018-04-02T08:41:41.029Z,81.43
2018-04-02T08:44:08.647Z,72.13
2018-04-02T08:46:36.255Z,81.10
2018-04-02T08:49:03.855Z,82.13
2018-04-02T08:51:31.494Z,71.30
2018-04-02T08:53:59.133Z,76.87
2018-04-02T08:56:26.743Z,78.03
2018-04-02T08:58:54.386Z,72.07
2018-04-02T09:01:22.008Z,74.20
2018-04-02T09:03:49.642Z,74.53
2018-04-02T09:06:18.017Z,81.47
2018-04-02T09:08:46.515Z,66.23
2018-04-02T09:11:14.130Z,73.70
2018-04-02T09:13:41.767Z,67.67
2018-04-02T09:16:11.542Z,78.50
2018-04-02T09:18:39.915Z,73.83
2018-04-02T09:21:08.317Z,67.63
2018-04-02T09:23:36.705Z,72.10
2018-04-02T09:26:04.358Z,74.27
2018-04-02T09:28:31.982Z,62.43
2018-04-02T09:30:59.625Z,64.63
2018-04-02T09:33:27.235Z,62.90
2018-04-02T09:35:55.649Z,55.67
2018-04-02T09:38:23.272Z,53.00
2018-04-02T09:40:51.669Z,61.00
2018-04-02T09:43:19.249Z,57.57
2018-04-02T09:45:46.841Z,64.83
2018-04-02T09:48:14.500Z,63.37
2018-04-02T09:50:42.113Z,54.70
2018-04-02T09:53:10.537Z,59.27
2018-04-02T09:55:38.205Z,61.03
2018-04-02T09:58:05.780Z,59.77
2018-04-02T10:00:33.387Z,61.17
2018-04-02T10:03:00.964Z,59.20
2018-04-02T10:05:28.656Z,62.80
2018-04-02T10:07:56.266Z,56.13
2018-04-02T10:10:23.955Z,57.03
2018-04-02T10:12:52.274Z,52.40
2018-04-02T10:15:20.250Z,59.67
2018-04-02T10:17:47.837Z,55.23
2018-04-02T10:20:16.280Z,52.13
2018-04-02T10:22:43.923Z,49.10
2018-04-02T10:25:11.556Z,49.40
2018-04-02T10:27:39.192Z,56.17
2018-04-02T10:30:06.834Z,46.20
2018-04-02T10:32:34.440Z,43.10
2018-04-02T10:35:02.032Z,42.40
2018-04-02T10:37:30.012Z,42.93
2018-04-02T10:39:57.606Z,44.00
2018-04-02T10:42:25.285Z,47.30
2018-04-02T10:44:52.872Z,41.67
2018-04-02T10:47:20.479Z,43.77
2018-04-02T10:49:48.244Z,44.77
2018-04-02T10:52:15.863Z,42.90
2018-04-02T10:54:43.526Z,41.73
2018-04-02T10:57:11.171Z,36.60
2018-04-02T10:59:39.597Z,36.27
2018-04-02T11:02:07.208Z,37.63
2018-04-02T11:04:34.833Z,41.20
2018-04-02T11:07:02.823Z,43.60
2018-04-02T11:09:31.207Z,39.90
2018-04-02T11:11:59.020Z,38.43
2018-04-02T11:14:26.594Z,36.93
2018-04-02T11:16:54.527Z,37.07
2018-04-02T11:19:22.221Z,39.97
2018-04-02T11:21:49.857Z,36.50
2018-04-02T11:24:17.477Z,37.37
2018-04-02T11:26:45.389Z,32.80
2018-04-02T11:29:13.175Z,34.20
2018-04-02T11:31:40.788Z,31.17
2018-04-02T11:34:09.212Z,33.70
2018-04-02T11:36:36.914Z,33.43
2018-04-02T11:39:04.553Z,34.37
2018-04-02T11:41:32.157Z,35.57
2018-04-02T11:43:59.768Z,35.80
2018-04-02T11:46:27.389Z,34.37
2018-04-02T11:48:56.049Z,33.53
2018-04-02T11:51:23.825Z,30.23
2018-04-02T11:53:51.451Z,28.97
2018-04-02T11:56:19.130Z,30.83
2018-04-02T11:58:46.775Z,29.53
2018-04-02T12:01:14.930Z,30.37
2018-04-02T12:03:42.542Z,24.93
2018-04-02T12:06:10.154Z,26.10
2018-04-02T12:08:37.750Z,23.60
2018-04-02T12:11:06.025Z,24.00
2018-04-02T12:13:33.665Z,23.97
2018-04-02T12:16:01.252Z,22.17
2018-04-02T12:18:28.860Z,20.13
2018-04-02T12:20:56.570Z,20.57
2018-04-02T12:23:24.175Z,19.50
2018-04-02T12:25:52.556Z,17.47
2018-04-02T12:28:20.973Z,18.63
2018-04-02T12:30:48.560Z,20.03
2018-04-02T12:33:16.197Z,20.80
2018-04-02T12:35:43.888Z,19.90
2018-04-02T12:38:11.582Z,18.00
2018-04-02T12:40:39.277Z,17.93
2018-04-02T12:43:06.870Z,20.23
2018-04-02T12:45:34.516Z,18.67
2018-04-02T12:48:02.096Z,17.87
2018-04-02T12:50:29.695Z,18.17
2018-04-02T12:52:57.288Z,17.10
2018-04-02T12:55:24.878Z,16.50
2018-04-02T12:57:52.532Z,17.10
2018-04-02T13:00:20.165Z,15.80
2018-04-02T13:02:47.778Z,14.00
2018-04-02T13:05:15.361Z,13.60
2018-04-02T13:07:42.946Z,16.37
2018-04-02T13:10:10.534Z,15.10
2018-04-02T13:12:38.123Z,14.57
2018-04-02T13:15:05.701Z,14.47
2018-04-02T13:17:33.268Z,16.43
2018-04-02T13:20:00.857Z,13.83
2018-04-02T13:22:28.480Z,17.03
2018-04-02T13:24:56.099Z,16.67
2018-04-02T13:27:24.865Z,14.80
2018-04-02T13:29:53.209Z,15.40
2018-04-02T13:32:20.836Z,13.17
2018-04-02T13:34:48.429Z,14.23
2018-04-02T13:37:16.134Z,13.60
2018-04-02T13:39:43.712Z,15.40
2018-04-02T13:42:11.287Z,10.83
2018-04-02T13:44:38.875Z,13.30
2018-04-02T13:47:06.466Z,13.73
2018-04-02T13:49:34.508Z,14.33
2018-04-02T13:52:02.140Z,12.70
2018-04-02T13:54:29.776Z,17.20
2018-04-02T13:56:57.349Z,15.87
2018-04-02T13:59:24.966Z,16.03
2018-04-02T14:01:52.572Z,15.13
2018-04-02T14:04:20.206Z,13.33
2018-04-02T14:06:48.593Z,14.07
2018-04-02T14:09:16.201Z,14.53
2018-04-02T14:11:43.794Z,14.73
2018-04-02T14:14:11.405Z,12.73
2018-04-02T14:16:38.999Z,14.40
2018-04-02T14:19:06.654Z,12.77
2018-04-02T14:21:34.255Z,15.43
2018-04-02T14:24:01.883Z,14.93
2018-04-02T14:26:29.469Z,14.43
2018-04-02T14:28:57.097Z,14.83
2018-04-02T14:31:24.692Z,16.00
2018-04-02T14:33:52.329Z,14.17
2018-04-02T14:36:19.955Z,18.00
2018-04-02T14:38:47.552Z,17.23
2018-04-02T14:41:15.184Z,12.80
2018-04-02T14:43:42.818Z,14.83
2018-04-02T14:46:11.189Z,12.50
2018-04-02T14:48:39.541Z,13.83
2018-04-02T14:51:07.152Z,15.50
2018-04-02T14:53:35.554Z,11.70
2018-04-02T14:56:04.406Z,12.23
2018-04-02T14:58:32.776Z,12.00
2018-04-02T15:01:00.408Z,11.73
2018-04-02T15:03:28.073Z,10.97
2018-04-02T15:05:55.662Z,10.97
2018-04-02T15:08:23.259Z,10.47
2018-04-02T15:10:50.833Z,10.33
2018-04-02T15:13:18.445Z,8.40
2018-04-02T15:15:46.075Z,8.70
2018-04-02T15:18:13.710Z,9.93
2018-04-02T15:20:41.331Z,9.13
2018-04-02T15:23:08.904Z,8.43
2018-04-02T15:25:40.321Z,8.43
2018-04-02T15:28:07.937Z,9.80
2018-04-02T15:30:35.505Z,9.33
2018-04-02T15:33:03.082Z,8.37
2018-04-02T15:35:30.709Z,9.17
2018-04-02T15:37:58.912Z,9.23
2018-04-02T15:40:26.487Z,9.87
2018-04-02T15:42:54.072Z,10.17
2018-04-02T15:45:21.691Z,8.70
2018-04-02T15:47:49.329Z,10.10
2018-04-02T15:50:18.616Z,8.03
2018-04-02T15:52:47.127Z,8.47
2018-04-02T15:55:14.783Z,11.03
2018-04-02T15:57:43.135Z,9.30
2018-04-02T16:00:10.757Z,8.37
2018-04-02T16:02:38.364Z,7.87
2018-04-02T16:05:06.030Z,9.37
2018-04-02T16:07:33.709Z,8.30
2018-04-02T16:10:01.285Z,8.63
2018-04-02T16:12:28.931Z,10.10
2018-04-02T16:14:56.506Z,9.13
2018-04-02T16:17:24.095Z,10.73
2018-04-02T16:19:51.706Z,11.63
2018-04-02T16:22:19.293Z,10.33
2018-04-02T16:24:46.904Z,12.10
2018-04-02T16:27:14.496Z,9.93
2018-04-02T16:29:42.845Z,8.37
2018-04-02T16:32:10.499Z,10.20
2018-04-02T16:34:38.069Z,12.73
2018-04-02T16:37:05.701Z,13.03
2018-04-02T16:39:33.373Z,11.33
2018-04-02T16:42:01.023Z,9.20
2018-04-02T16:44:28.634Z,9.57
2018-04-02T16:46:56.257Z,9.20
2018-04-02T16:49:23.867Z,8.93
2018-04-02T16:51:51.533Z,9.77
2018-04-02T16:54:19.898Z,10.10
2018-04-02T16:56:47.511Z,14.03
2018-04-02T16:59:15.138Z,10.23
2018-04-02T17:01:43.511Z,9.93
2018-04-02T17:04:11.089Z,10.37
2018-04-02T17:06:39.460Z,13.57
2018-04-02T17:09:07.830Z,17.83
2018-04-02T17:11:35.408Z,29.87
2018-04-02T17:14:02.985Z,21.33
2018-04-02T17:16:30.607Z,25.37
2018-04-02T17:18:58.222Z,24.93
2018-04-02T17:21:25.840Z,22.10
2018-04-02T17:23:53.472Z,23.73
2018-04-02T17:26:21.096Z,20.97
2018-04-02T17:28:48.715Z,17.77
2018-04-02T17:31:16.355Z,21.57
2018-04-02T17:33:43.969Z,14.90
2018-04-02T17:36:11.579Z,12.63
2018-04-02T17:38:39.209Z,11.47
2018-04-02T17:41:06.798Z,15.37
2018-04-02T17:43:34.397Z,23.87
2018-04-02T17:46:01.994Z,29.93
2018-04-02T17:48:29.598Z,16.33
2018-04-02T17:50:57.288Z,21.73
2018-04-02T17:53:25.678Z,15.43
2018-04-02T17:55:54.057Z,12.70
2018-04-02T17:58:22.408Z,17.63
2018-04-02T18:00:50.801Z,13.57
2018-04-02T18:03:18.446Z,12.40
2018-04-02T18:05:46.061Z,14.10
2018-04-02T18:08:13.645Z,12.70
2018-04-02T18:10:41.294Z,12.37
2018-04-02T18:13:08.907Z,13.10
2018-04-02T18:15:36.510Z,13.20
2018-04-02T18:18:04.167Z,13.10
2018-04-02T18:20:31.799Z,11.93
2018-04-02T18:22:59.425Z,14.20
2018-04-02T18:25:27.332Z,11.70
2018-04-02T18:27:54.980Z,11.27
2018-04-02T18:30:22.617Z,12.40
2018-04-02T18:32:50.237Z,9.60
2018-04-02T18:35:17.911Z,10.80
2018-04-02T18:37:45.512Z,10.50
2018-04-02T18:40:13.093Z,13.40
2018-04-02T18:42:40.749Z,9.63
2018-04-02T18:45:08.367Z,12.03
2018-04-02T18:47:36.590Z,12.50
2018-04-02T18:50:04.415Z,12.23
2018-04-02T18:52:32.141Z,10.73
2018-04-02T18:54:59.902Z,10.77
2018-04-02T18:57:27.608Z,9.67
2018-04-02T18:59:55.474Z,13.73
2018-04-02T19:02:23.068Z,10.37
2018-04-02T19:04:50.710Z,12.07
2018-04-02T19:07:19.610Z,10.07
2018-04-02T19:09:47.211Z,12.27
2018-04-02T19:12:14.826Z,9.47
2018-04-02T19:14:42.423Z,12.33
2018-04-02T19:17:10.005Z,12.93
2018-04-02T19:19:37.825Z,12.83
2018-04-02T19:22:05.557Z,11.87
2018-04-02T19:24:33.167Z,9.90
2018-04-02T19:27:00.756Z,9.43
2018-04-02T19:29:29.136Z,8.83
2018-04-02T19:31:57.533Z,9.10
2018-04-02T19:34:25.919Z,8.37
2018-04-02T19:36:53.882Z,6.93
2018-04-02T19:39:21.522Z,10.00
2018-04-02T19:41:49.231Z,8.63
2018-04-02T19:44:16.943Z,8.70
2018-04-02T19:46:44.652Z,7.33
2018-04-02T19:49:12.448Z,8.20
2018-04-02T19:51:40.074Z,7.10
2018-04-02T19:54:07.662Z,6.90
2018-04-02T19:56:35.259Z,8.80
2018-04-02T19:59:03.297Z,6.97
2018-04-02T20:01:30.933Z,8.43
2018-04-02T20:03:58.651Z,7.03
2018-04-02T20:06:26.496Z,6.03
2018-04-02T20:08:54.080Z,8.80
2018-04-02T20:11:21.710Z,6.67
2018-04-02T20:13:49.482Z,8.10
2018-04-02T20:16:17.109Z,9.07
2018-04-02T20:18:45.612Z,7.23
2018-04-02T20:21:13.204Z,9.07
2018-04-02T20:23:40.856Z,7.40
2018-04-02T20:26:08.461Z,8.53
2018-04-02T20:28:36.833Z,6.53
2018-04-02T20:31:04.551Z,13.60
2018-04-02T20:33:32.189Z,6.33
2018-04-02T20:36:01.103Z,8.50
2018-04-02T20:38:29.693Z,7.40
2018-04-02T20:40:56.747Z,6.80
2018-04-02T20:43:24.387Z,7.17
2018-04-02T20:45:52.502Z,5.27
2018-04-02T20:48:20.180Z,6.67
2018-04-02T20:50:47.794Z,7.73
2018-04-02T20:53:15.643Z,6.33
2018-04-02T20:55:43.512Z,6.87
2018-04-02T20:58:11.413Z,7.57
2018-04-02T21:00:39.074Z,6.57
2018-04-02T21:03:06.739Z,6.67
2018-04-02T21:05:34.719Z,6.17
2018-04-02T21:08:02.322Z,5.53
2018-04-02T21:10:29.979Z,5.90
2018-04-02T21:12:58.404Z,6.27
2018-04-02T21:15:26.045Z,5.83
2018-04-02T21:17:53.982Z,8.03
2018-04-02T21:20:21.560Z,6.60
2018-04-02T21:22:49.171Z,6.70
2018-04-02T21:25:16.764Z,5.93
2018-04-02T21:27:44.582Z,8.10
2018-04-02T21:30:12.220Z,9.73
2018-04-02T21:32:39.816Z,5.83
2018-04-02T21:35:07.725Z,7.17
2018-04-02T21:37:35.632Z,7.23
2018-04-02T21:40:03.380Z,5.87
2018-04-02T21:42:31.144Z,8.03
2018-04-02T21:44:58.748Z,6.90
2018-04-02T21:47:26.478Z,8.43
2018-04-02T21:49:54.854Z,6.97
2018-04-02T21:52:23.457Z,7.80
2018-04-02T21:54:51.603Z,6.37
2018-04-02T21:57:19.581Z,8.60
2018-04-02T21:59:47.277Z,7.20
2018-04-02T22:02:14.908Z,6.97
2018-04-02T22:04:43.338Z,6.83
2018-04-02T22:07:11.777Z,5.97
2018-04-02T22:09:39.381Z,7.57
2018-04-02T22:12:06.999Z,6.13
2018-04-02T22:14:34.716Z,6.63
2018-04-02T22:17:02.292Z,6.70
2018-04-02T22:19:29.966Z,6.57
2018-04-02T22:21:57.675Z,7.80
2018-04-02T22:24:25.305Z,6.97
2018-04-02T22:26:54.121Z,8.80
2018-04-02T22:29:22.772Z,8.07
2018-04-02T22:31:50.548Z,6.30
2018-04-02T22:34:19.010Z,5.90
2018-04-02T22:36:46.662Z,8.90
2018-04-02T22:39:14.377Z,6.47
2018-04-02T22:41:42.187Z,6.27
2018-04-02T22:44:09.840Z,6.33
2018-04-02T22:46:37.605Z,7.20
2018-04-02T22:49:05.263Z,7.53
2018-04-02T22:51:32.870Z,6.37
2018-04-02T22:54:00.777Z,7.97
2018-04-02T22:56:28.523Z,6.30
2018-04-02T22:58:57.267Z,6.97
2018-04-02T23:01:24.930Z,6.10
2018-04-02T23:03:52.537Z,6.43
2018-04-02T23:06:20.368Z,6.43
2018-04-02T23:08:48.023Z,5.90
2018-04-02T23:11:15.709Z,5.30
2018-04-02T23:13:44.045Z,6.73
2018-04-02T23:16:11.672Z,5.83
2018-04-02T23:18:39.336Z,7.23
2018-04-02T23:21:06.938Z,6.77
2018-04-02T23:23:34.696Z,5.47
2018-04-02T23:26:02.349Z,4.90
2018-04-02T23:28:30.070Z,7.43
2018-04-02T23:30:59.111Z,5.33
2018-04-02T23:33:26.777Z,5.67
2018-04-02T23:35:54.552Z,4.77
2018-04-02T23:38:22.341Z,5.07
2018-04-02T23:40:49.954Z,4.97
2018-04-02T23:43:17.695Z,6.03
2018-04-02T23:45:45.409Z,5.60
2018-04-02T23:48:13.114Z,6.20
2018-04-02T23:50:41.652Z,6.67
2018-04-02T23:53:09.573Z,5.50
2018-04-02T23:55:37.914Z,4.37
2018-04-02T23:58:05.751Z,5.03
